createdAt,value
2022-08-26T00:01:39.149Z,23.00
2022-08-26T00:06:46.065Z,22.85
2022-08-26T00:11:49.421Z,22.67
2022-08-26T00:16:53.732Z,22.74
2022-08-26T00:21:59.232Z,22.76
2022-08-26T00:27:02.216Z,22.89
2022-08-26T00:32:05.078Z,22.82
2022-08-26T00:37:11.652Z,22.81
2022-08-26T00:42:17.181Z,22.82
2022-08-26T00:47:24.391Z,22.86
2022-08-26T00:52:28.760Z,22.74
2022-08-26T00:57:32.412Z,22.72
2022-08-26T01:02:35.305Z,22.64
2022-08-26T01:07:41.650Z,22.63
2022-08-26T01:12:47.709Z,22.53
2022-08-26T01:17:51.269Z,22.59
2022-08-26T01:23:01.473Z,22.58
2022-08-26T01:28:08.957Z,22.42
2022-08-26T01:33:17.081Z,22.47
2022-08-26T01:38:21.365Z,22.46
2022-08-26T01:43:28.898Z,22.40
2022-08-26T01:48:33.540Z,22.37
2022-08-26T01:53:37.815Z,22.33
2022-08-26T01:58:46.697Z,22.25
2022-08-26T02:03:55.396Z,22.14
2022-08-26T02:09:01.858Z,22.08
2022-08-26T02:14:10.171Z,22.02
2022-08-26T02:19:17.126Z,22.10
2022-08-26T02:24:23.600Z,22.19
2022-08-26T02:29:33.815Z,22.20
2022-08-26T02:34:36.388Z,22.13
2022-08-26T02:39:42.343Z,22.08
2022-08-26T02:44:45.397Z,21.97
2022-08-26T02:49:48.244Z,21.93
2022-08-26T02:54:52.787Z,21.72
2022-08-26T02:59:55.446Z,21.37
2022-08-26T03:05:01.737Z,21.32
2022-08-26T03:10:08.524Z,21.25
2022-08-26T03:15:16.006Z,21.30
2022-08-26T03:20:20.068Z,21.41
2022-08-26T03:25:25.128Z,21.23
2022-08-26T03:30:45.329Z,21.27
2022-08-26T03:35:50.568Z,21.16
2022-08-26T03:40:55.487Z,21.11
2022-08-26T03:45:58.164Z,21.08
2022-08-26T03:51:00.948Z,21.15
2022-08-26T03:56:07.492Z,20.81
2022-08-26T04:01:10.169Z,20.82
2022-08-26T04:06:12.888Z,20.76
2022-08-26T04:11:19.944Z,20.63
2022-08-26T04:16:22.852Z,20.52
2022-08-26T04:21:29.279Z,20.47
2022-08-26T04:26:36.988Z,20.31
2022-08-26T04:31:42.356Z,20.29
2022-08-26T04:36:45.313Z,20.12
2022-08-26T04:41:50.106Z,19.93
2022-08-26T04:46:53.593Z,19.81
2022-08-26T04:51:58.181Z,19.82
2022-08-26T04:57:02.517Z,19.86
2022-08-26T05:02:06.719Z,19.97
2022-08-26T05:07:09.488Z,20.02
2022-08-26T05:12:13.759Z,20.49
2022-08-26T05:17:16.408Z,20.57
2022-08-26T05:22:20.095Z,19.93
2022-08-26T05:27:24.453Z,19.97
2022-08-26T05:32:27.436Z,20.68
2022-08-26T05:37:31.856Z,20.36
2022-08-26T05:42:36.015Z,20.61
2022-08-26T05:47:38.762Z,20.52
2022-08-26T05:52:42.689Z,20.04
2022-08-26T05:57:46.808Z,20.06
2022-08-26T06:02:51.175Z,20.01
2022-08-26T06:08:14.000Z,20.20
2022-08-26T06:13:19.257Z,20.35
2022-08-26T06:18:25.208Z,20.46
2022-08-26T06:23:47.031Z,20.43
2022-08-26T06:28:51.029Z,20.49
2022-08-26T06:33:55.641Z,20.34
2022-08-26T06:39:03.286Z,20.68
2022-08-26T06:44:08.432Z,20.34
2022-08-26T06:49:12.345Z,20.61
2022-08-26T06:54:15.065Z,20.66
2022-08-26T06:59:19.059Z,20.67
2022-08-26T07:04:24.426Z,20.74
2022-08-26T07:09:30.262Z,20.93
2022-08-26T07:14:34.808Z,20.80
2022-08-26T07:19:37.481Z,21.09
2022-08-26T07:24:41.959Z,20.91
2022-08-26T07:29:46.965Z,21.45
2022-08-26T07:34:49.733Z,21.74
2022-08-26T07:39:52.724Z,21.62
2022-08-26T07:44:56.785Z,21.52
2022-08-26T07:50:00.373Z,21.86
2022-08-26T07:55:04.538Z,21.87
2022-08-26T08:00:13.083Z,21.62
2022-08-26T08:05:19.002Z,21.57
2022-08-26T08:10:25.216Z,21.91
2022-08-26T08:15:32.067Z,22.19
2022-08-26T08:20:35.841Z,22.48
2022-08-26T08:25:39.254Z,22.61
2022-08-26T08:30:43.738Z,22.51
2022-08-26T08:35:46.614Z,22.72
2022-08-26T08:40:49.500Z,23.11
2022-08-26T08:45:55.882Z,22.68
2022-08-26T08:51:07.077Z,22.09
2022-08-26T08:56:13.681Z,22.31
2022-08-26T09:01:27.055Z,22.58
2022-08-26T09:06:30.664Z,21.94
2022-08-26T09:11:33.866Z,23.19
2022-08-26T09:16:42.512Z,22.89
2022-08-26T09:21:45.800Z,23.23
2022-08-26T09:26:48.919Z,23.05
2022-08-26T09:32:16.089Z,23.76
2022-08-26T09:37:35.460Z,23.64
2022-08-26T09:42:38.404Z,23.60
2022-08-26T09:47:55.976Z,23.18
2022-08-26T09:53:09.916Z,24.06
2022-08-26T09:58:17.525Z,23.43
2022-08-26T10:03:27.316Z,23.77
2022-08-26T10:08:37.164Z,23.61
2022-08-26T10:13:42.301Z,23.76
2022-08-26T10:18:51.663Z,24.21
2022-08-26T10:23:57.600Z,23.57
2022-08-26T10:29:07.566Z,23.75
2022-08-26T10:34:14.291Z,23.60
2022-08-26T10:39:22.137Z,23.80
2022-08-26T10:44:27.782Z,24.04
2022-08-26T10:49:35.278Z,23.75
2022-08-26T10:54:42.390Z,23.92
2022-08-26T10:59:51.742Z,24.98
2022-08-26T11:04:57.476Z,23.98
2022-08-26T11:10:02.437Z,24.04
2022-08-26T11:15:06.763Z,23.98
2022-08-26T11:20:33.071Z,25.06
2022-08-26T11:26:13.341Z,24.58
2022-08-26T11:31:56.026Z,24.94
2022-08-26T11:37:00.385Z,24.21
2022-08-26T11:42:05.704Z,25.51
2022-08-26T11:47:11.772Z,24.38
2022-08-26T11:52:18.589Z,24.49
2022-08-26T11:57:24.041Z,25.06
2022-08-26T12:02:28.541Z,25.49
2022-08-26T12:07:31.306Z,24.68
2022-08-26T12:12:38.653Z,25.46
2022-08-26T12:17:43.567Z,25.57
2022-08-26T12:22:48.034Z,25.74
2022-08-26T12:27:53.757Z,26.11
2022-08-26T12:33:22.328Z,26.80
2022-08-26T12:38:26.777Z,25.42
2022-08-26T12:43:41.714Z,26.19
2022-08-26T12:48:50.044Z,25.68
2022-08-26T12:53:53.035Z,26.21
2022-08-26T12:59:11.176Z,25.97
2022-08-26T13:04:38.896Z,25.75
2022-08-26T13:09:41.556Z,26.41
2022-08-26T13:14:45.740Z,26.32
2022-08-26T13:19:49.767Z,25.45
2022-08-26T13:24:58.174Z,25.71
2022-08-26T13:30:01.504Z,25.57
2022-08-26T13:35:06.538Z,26.92
2022-08-26T13:40:10.656Z,26.31
2022-08-26T13:45:13.465Z,25.85
2022-08-26T13:50:17.494Z,25.44
2022-08-26T13:55:20.186Z,25.38
2022-08-26T14:00:23.181Z,25.62
2022-08-26T14:05:27.772Z,25.11
2022-08-26T14:10:30.453Z,25.08
2022-08-26T14:15:34.189Z,24.97
2022-08-26T14:20:38.523Z,25.25
2022-08-26T14:25:41.226Z,24.81
2022-08-26T14:30:45.326Z,24.75
2022-08-26T14:35:49.814Z,24.75
2022-08-26T14:40:52.650Z,24.82
2022-08-26T14:45:55.299Z,24.64
2022-08-26T14:50:59.273Z,24.79
2022-08-26T14:56:02.140Z,24.48
2022-08-26T15:01:04.867Z,24.39
2022-08-26T15:06:09.650Z,24.58
2022-08-26T15:11:12.508Z,24.69
2022-08-26T15:16:15.765Z,24.67
2022-08-26T15:21:20.464Z,24.80
2022-08-26T15:26:23.495Z,24.65
2022-08-26T15:31:30.950Z,24.71
2022-08-26T15:36:37.688Z,24.75
2022-08-26T15:41:40.473Z,24.44
2022-08-26T15:46:43.116Z,24.52
2022-08-26T15:51:48.099Z,24.45
2022-08-26T15:56:52.962Z,24.42
2022-08-26T16:01:56.277Z,24.17
2022-08-26T16:07:00.337Z,24.18
2022-08-26T16:12:03.249Z,24.31
2022-08-26T16:17:05.939Z,24.04
2022-08-26T16:22:10.064Z,24.21
2022-08-26T16:27:12.949Z,23.99
2022-08-26T16:32:17.624Z,23.89
2022-08-26T16:37:21.615Z,23.80
2022-08-26T16:42:24.392Z,23.65
2022-08-26T16:47:27.071Z,23.45
2022-08-26T16:52:31.436Z,23.52
2022-08-26T16:57:34.171Z,23.50
2022-08-26T17:02:36.883Z,23.47
2022-08-26T17:07:40.880Z,23.27
2022-08-26T17:12:43.520Z,23.14
2022-08-26T17:17:46.184Z,23.04
2022-08-26T17:22:51.510Z,23.05
2022-08-26T17:27:54.171Z,23.03
2022-08-26T17:32:57.015Z,22.89
2022-08-26T17:38:01.694Z,22.92
2022-08-26T17:43:09.075Z,22.64
2022-08-26T17:48:14.443Z,22.74
2022-08-26T17:53:19.306Z,22.54
2022-08-26T17:58:23.431Z,22.44
2022-08-26T18:03:26.522Z,22.46
2022-08-26T18:08:30.519Z,22.47
2022-08-26T18:13:33.136Z,22.35
2022-08-26T18:18:36.211Z,22.23
2022-08-26T18:23:40.290Z,22.03
2022-08-26T18:28:42.987Z,22.02
2022-08-26T18:33:48.765Z,21.90
2022-08-26T18:38:53.377Z,21.80
2022-08-26T18:43:56.645Z,21.89
2022-08-26T18:49:00.407Z,21.83
2022-08-26T18:54:06.137Z,21.74
2022-08-26T18:59:09.448Z,21.60
2022-08-26T19:04:15.434Z,21.57
2022-08-26T19:09:20.143Z,21.55
2022-08-26T19:14:23.628Z,21.57
2022-08-26T19:19:26.288Z,21.45
2022-08-26T19:24:30.333Z,21.30
2022-08-26T19:29:35.385Z,21.25
2022-08-26T19:34:40.975Z,21.23
2022-08-26T19:39:45.016Z,21.14
2022-08-26T19:45:05.347Z,21.12
2022-08-26T19:50:11.477Z,20.97
2022-08-26T19:55:17.581Z,20.83
2022-08-26T20:00:27.405Z,21.05
2022-08-26T20:05:31.196Z,20.81
2022-08-26T20:10:36.364Z,20.80
2022-08-26T20:15:39.019Z,20.81
2022-08-26T20:20:58.964Z,21.00
2022-08-26T20:26:02.917Z,20.91
2022-08-26T20:31:05.621Z,20.92
2022-08-26T20:36:09.990Z,20.86
2022-08-26T20:41:14.332Z,20.57
2022-08-26T20:46:20.295Z,20.50
2022-08-26T20:51:26.137Z,20.68
2022-08-26T20:56:30.231Z,20.56
2022-08-26T21:01:35.123Z,20.41
2022-08-26T21:06:38.218Z,20.23
2022-08-26T21:11:42.537Z,20.46
2022-08-26T21:16:45.997Z,20.23
2022-08-26T21:21:50.702Z,20.18
2022-08-26T21:26:54.765Z,20.36
2022-08-26T21:31:57.650Z,20.36
2022-08-26T21:37:00.510Z,20.19
2022-08-26T21:42:04.770Z,20.14
2022-08-26T21:47:09.870Z,20.06
2022-08-26T21:52:13.670Z,20.17
2022-08-26T21:57:18.228Z,20.08
2022-08-26T22:02:22.686Z,20.14
2022-08-26T22:07:25.373Z,20.26
2022-08-26T22:12:29.372Z,20.23
2022-08-26T22:17:33.740Z,20.09
2022-08-26T22:22:36.385Z,19.99
2022-08-26T22:27:42.812Z,20.15
2022-08-26T22:32:45.800Z,20.04
2022-08-26T22:37:48.471Z,19.98
2022-08-26T22:42:58.721Z,19.92
2022-08-26T22:48:05.047Z,19.85
2022-08-26T22:53:07.696Z,19.76
2022-08-26T22:58:12.945Z,19.95
2022-08-26T23:03:19.284Z,19.58
2022-08-26T23:08:22.100Z,19.49
2022-08-26T23:13:26.088Z,19.52
2022-08-26T23:18:28.791Z,19.67
2022-08-26T23:23:31.665Z,19.69
2022-08-26T23:28:36.379Z,19.69
2022-08-26T23:33:56.495Z,19.54
2022-08-26T23:39:01.110Z,19.48
2022-08-26T23:44:05.789Z,19.55
2022-08-26T23:49:08.434Z,19.36
2022-08-26T23:54:13.933Z,19.41
2022-08-26T23:59:17.932Z,19.44
